createdAt,value
2024-05-09T00:01:24.679Z,95256.00
2024-05-09T00:02:24.942Z,95257.00
2024-05-09T00:03:24.790Z,95256.00
2024-05-09T00:04:24.845Z,95255.00
2024-05-09T00:05:25.076Z,95256.00
2024-05-09T00:06:24.917Z,95254.00
2024-05-09T00:07:24.957Z,95253.00
2024-05-09T00:08:25.069Z,95256.00
2024-05-09T00:09:25.040Z,95256.00
2024-05-09T00:10:32.592Z,95253.00
2024-05-09T00:11:26.140Z,95253.00
2024-05-09T00:12:25.167Z,95257.00
2024-05-09T00:13:25.070Z,95255.00
2024-05-09T00:14:25.167Z,95254.00
2024-05-09T00:15:25.081Z,95257.00
2024-05-09T00:16:25.077Z,95256.00
2024-05-09T00:17:25.233Z,95255.00
2024-05-09T00:18:25.209Z,95252.00
2024-05-09T00:19:25.139Z,95251.00
2024-05-09T00:20:33.101Z,95250.00
2024-05-09T00:21:26.090Z,95253.00
2024-05-09T00:22:25.098Z,95251.00
2024-05-09T00:23:25.156Z,95250.00
2024-05-09T00:24:25.088Z,95248.00
2024-05-09T00:25:25.102Z,95248.00
2024-05-09T00:26:25.175Z,95249.00
2024-05-09T00:27:25.108Z,95248.00
2024-05-09T00:28:25.113Z,95249.00
2024-05-09T00:29:25.227Z,95250.00
2024-05-09T00:30:33.208Z,95249.00
2024-05-09T00:31:26.124Z,95252.00
2024-05-09T00:32:25.270Z,95249.00
2024-05-09T00:33:25.259Z,95247.00
2024-05-09T00:34:25.245Z,95245.00
2024-05-09T00:35:25.292Z,95246.00
2024-05-09T00:36:25.107Z,95242.00
2024-05-09T00:37:25.121Z,95243.00
2024-05-09T00:38:25.165Z,95242.00
2024-05-09T00:39:25.114Z,95243.00
2024-05-09T00:40:31.238Z,95240.00
2024-05-09T00:41:26.162Z,95237.00
2024-05-09T00:42:25.123Z,95237.00
2024-05-09T00:43:25.124Z,95236.00
2024-05-09T00:44:25.203Z,95236.00
2024-05-09T00:45:25.151Z,95237.00
2024-05-09T00:46:25.131Z,95236.00
2024-05-09T00:47:25.354Z,95235.00
2024-05-09T00:48:25.243Z,95236.00
2024-05-09T00:49:25.289Z,95235.00
2024-05-09T00:50:33.383Z,95235.00
2024-05-09T00:51:26.138Z,95233.00
2024-05-09T00:52:25.162Z,95232.00
2024-05-09T00:53:25.171Z,95230.00
2024-05-09T00:54:25.145Z,95227.00
2024-05-09T00:55:25.143Z,95225.00
2024-05-09T00:56:25.274Z,95224.00
2024-05-09T00:57:25.153Z,95224.00
2024-05-09T00:58:25.156Z,95224.00
2024-05-09T00:59:25.302Z,95225.00
2024-05-09T01:00:31.355Z,95226.00
2024-05-09T01:01:26.211Z,95224.00
2024-05-09T01:02:25.252Z,95223.00
2024-05-09T01:03:25.322Z,95223.00
2024-05-09T01:04:25.278Z,95225.00
2024-05-09T01:05:25.218Z,95224.00
2024-05-09T01:06:25.174Z,95222.00
2024-05-09T01:07:25.177Z,95220.00
2024-05-09T01:08:25.180Z,95218.00
2024-05-09T01:09:25.186Z,95219.00
2024-05-09T01:10:32.288Z,95217.00
2024-05-09T01:11:26.362Z,95216.00
2024-05-09T01:12:25.351Z,95214.00
2024-05-09T01:13:25.211Z,95215.00
2024-05-09T01:14:25.328Z,95212.00
2024-05-09T01:15:25.211Z,95213.00
2024-05-09T01:16:25.212Z,95215.00
2024-05-09T01:17:25.350Z,95215.00
2024-05-09T01:18:25.307Z,95216.00
2024-05-09T01:19:25.448Z,95214.00
2024-05-09T01:20:32.162Z,95214.00
2024-05-09T01:21:26.320Z,95213.00
2024-05-09T01:22:25.236Z,95211.00
2024-05-09T01:23:25.292Z,95212.00
2024-05-09T01:24:25.251Z,95214.00
2024-05-09T01:25:25.247Z,95211.00
2024-05-09T01:26:25.305Z,95213.00
2024-05-09T01:27:25.255Z,95212.00
2024-05-09T01:28:25.243Z,95213.00
2024-05-09T01:29:25.379Z,95213.00
2024-05-09T01:30:33.337Z,95214.00
2024-05-09T01:31:26.293Z,95212.00
2024-05-09T01:32:25.502Z,95211.00
2024-05-09T01:33:25.476Z,95213.00
2024-05-09T01:34:25.278Z,95212.00
2024-05-09T01:35:25.513Z,95214.00
2024-05-09T01:36:25.283Z,95213.00
2024-05-09T01:37:25.284Z,95214.00
2024-05-09T01:38:25.334Z,95213.00
2024-05-09T01:39:25.289Z,95213.00
2024-05-09T01:40:34.001Z,95215.00
2024-05-09T01:41:26.446Z,95214.00
2024-05-09T01:42:25.291Z,95216.00
2024-05-09T01:43:25.284Z,95216.00
2024-05-09T01:44:25.468Z,95214.00
2024-05-09T01:45:25.291Z,95216.00
2024-05-09T01:46:25.295Z,95215.00
2024-05-09T01:47:25.535Z,95218.00
2024-05-09T01:48:25.392Z,95216.00
2024-05-09T01:49:25.543Z,95216.00
2024-05-09T01:50:37.211Z,95217.00
2024-05-09T01:51:26.297Z,95219.00
2024-05-09T01:52:25.324Z,95217.00
2024-05-09T01:53:25.450Z,95216.00
2024-05-09T01:54:25.302Z,95215.00
2024-05-09T01:55:25.329Z,95216.00
2024-05-09T01:56:25.388Z,95215.00
2024-05-09T01:57:25.314Z,95216.00
2024-05-09T01:58:25.321Z,95215.00
2024-05-09T01:59:25.381Z,95214.00
2024-05-09T02:00:34.172Z,95213.00
2024-05-09T02:01:26.388Z,95213.00
2024-05-09T02:02:25.378Z,95213.00
2024-05-09T02:03:25.451Z,95213.00
2024-05-09T02:04:25.442Z,95213.00
2024-05-09T02:05:25.570Z,95212.00
2024-05-09T02:06:25.343Z,95213.00
2024-05-09T02:07:25.359Z,95212.00
2024-05-09T02:08:25.427Z,95211.00
2024-05-09T02:09:25.354Z,95210.00
2024-05-09T02:10:31.956Z,95211.00
2024-05-09T02:11:26.429Z,95209.00
2024-05-09T02:12:25.451Z,95209.00
2024-05-09T02:13:25.375Z,95209.00
2024-05-09T02:14:26.437Z,95206.00
2024-05-09T02:15:25.357Z,95206.00
2024-05-09T02:16:25.352Z,95206.00
2024-05-09T02:17:25.529Z,95205.00
2024-05-09T02:18:25.524Z,95205.00
2024-05-09T02:19:25.488Z,95203.00
2024-05-09T02:20:33.475Z,95203.00
2024-05-09T02:21:26.431Z,95203.00
2024-05-09T02:22:25.425Z,95202.00
2024-05-09T02:23:25.455Z,95203.00
2024-05-09T02:24:25.431Z,95202.00
2024-05-09T02:25:25.435Z,95198.00
2024-05-09T02:26:25.481Z,95200.00
2024-05-09T02:27:25.435Z,95201.00
2024-05-09T02:28:25.431Z,95200.00
2024-05-09T02:29:25.557Z,95202.00
2024-05-09T02:30:30.990Z,95201.00
2024-05-09T02:31:26.444Z,95202.00
2024-05-09T02:32:25.657Z,95201.00
2024-05-09T02:33:25.669Z,95202.00
2024-05-09T02:34:25.544Z,95202.00
2024-05-09T02:35:25.577Z,95199.00
2024-05-09T02:36:25.455Z,95200.00
2024-05-09T02:37:25.446Z,95200.00
2024-05-09T02:38:25.513Z,95198.00
2024-05-09T02:39:25.443Z,95198.00
2024-05-09T02:40:33.559Z,95197.00
2024-05-09T02:41:26.481Z,95200.00
2024-05-09T02:42:25.454Z,95199.00
2024-05-09T02:43:25.465Z,95199.00
2024-05-09T02:44:25.531Z,95198.00
2024-05-09T02:45:25.457Z,95198.00
2024-05-09T02:46:25.465Z,95199.00
2024-05-09T02:47:25.649Z,95198.00
2024-05-09T02:48:25.613Z,95201.00
2024-05-09T02:49:25.621Z,95203.00
2024-05-09T02:50:33.721Z,95203.00
2024-05-09T02:51:26.475Z,95204.00
2024-05-09T02:52:25.477Z,95206.00
2024-05-09T02:53:25.604Z,95206.00
2024-05-09T02:54:25.483Z,95204.00
2024-05-09T02:55:25.480Z,95205.00
2024-05-09T02:56:25.544Z,95206.00
2024-05-09T02:57:25.483Z,95203.00
2024-05-09T02:58:25.491Z,95201.00
2024-05-09T02:59:25.598Z,95202.00
2024-05-09T03:01:25.595Z,95198.00
2024-05-09T03:02:25.550Z,95199.00
2024-05-09T03:03:25.973Z,95198.00
2024-05-09T03:04:25.536Z,95200.00
2024-05-09T03:05:25.601Z,95199.00
2024-05-09T03:06:25.534Z,95198.00
2024-05-09T03:07:25.546Z,95199.00
2024-05-09T03:08:25.611Z,95199.00
2024-05-09T03:09:25.566Z,95198.00
2024-05-09T03:10:28.815Z,95197.00
2024-05-09T03:11:26.722Z,95196.00
2024-05-09T03:12:25.631Z,95194.00
2024-05-09T03:13:25.595Z,95195.00
2024-05-09T03:14:25.741Z,95196.00
2024-05-09T03:15:25.606Z,95197.00
2024-05-09T03:16:25.623Z,95196.00
2024-05-09T03:17:25.769Z,95196.00
2024-05-09T03:18:25.717Z,95194.00
2024-05-09T03:19:25.757Z,95195.00
2024-05-09T03:20:32.520Z,95197.00
2024-05-09T03:21:26.638Z,95196.00
2024-05-09T03:22:25.619Z,95196.00
2024-05-09T03:23:25.785Z,95195.00
2024-05-09T03:24:25.709Z,95197.00
2024-05-09T03:25:25.609Z,95196.00
2024-05-09T03:26:25.682Z,95197.00
2024-05-09T03:27:25.620Z,95198.00
2024-05-09T03:28:25.625Z,95199.00
2024-05-09T03:29:25.701Z,95200.00
2024-05-09T03:30:35.424Z,95199.00
2024-05-09T03:31:26.658Z,95201.00
2024-05-09T03:32:25.740Z,95200.00
2024-05-09T03:33:25.973Z,95200.00
2024-05-09T03:34:25.667Z,95201.00
2024-05-09T03:35:25.736Z,95202.00
2024-05-09T03:36:25.638Z,95203.00
2024-05-09T03:37:25.646Z,95206.00
2024-05-09T03:38:25.770Z,95207.00
2024-05-09T03:39:25.646Z,95208.00
2024-05-09T03:40:29.023Z,95210.00
2024-05-09T03:41:26.738Z,95208.00
2024-05-09T03:42:25.656Z,95208.00
2024-05-09T03:43:25.656Z,95209.00
2024-05-09T03:44:25.807Z,95209.00
2024-05-09T03:45:25.670Z,95208.00
2024-05-09T03:46:25.660Z,95210.00
2024-05-09T03:47:25.872Z,95211.00
2024-05-09T03:48:25.861Z,95208.00
2024-05-09T03:49:25.822Z,95207.00
2024-05-09T03:50:30.406Z,95208.00
2024-05-09T03:51:26.678Z,95209.00
2024-05-09T03:52:25.701Z,95207.00
2024-05-09T03:53:25.720Z,95209.00
2024-05-09T03:54:25.683Z,95211.00
2024-05-09T03:55:25.680Z,95209.00
2024-05-09T03:56:25.776Z,95209.00
2024-05-09T03:57:25.689Z,95209.00
2024-05-09T03:58:25.688Z,95212.00
2024-05-09T03:59:25.796Z,95214.00
2024-05-09T04:00:31.774Z,95216.00
2024-05-09T04:01:26.781Z,95218.00
2024-05-09T04:02:25.810Z,95222.00
2024-05-09T04:03:25.981Z,95221.00
2024-05-09T04:04:25.734Z,95224.00
2024-05-09T04:05:25.772Z,95223.00
2024-05-09T04:06:25.702Z,95225.00
2024-05-09T04:07:25.704Z,95227.00
2024-05-09T04:08:25.724Z,95225.00
2024-05-09T04:09:25.708Z,95227.00
2024-05-09T04:10:31.276Z,95225.00
2024-05-09T04:11:26.926Z,95226.00
2024-05-09T04:12:25.976Z,95226.00
2024-05-09T04:13:26.016Z,95228.00
2024-05-09T04:14:26.250Z,95226.00
2024-05-09T04:15:26.167Z,95227.00
2024-05-09T04:16:26.176Z,95228.00
2024-05-09T04:17:26.295Z,95226.00
2024-05-09T04:18:26.299Z,95230.00
2024-05-09T04:19:26.320Z,95232.00
2024-05-09T04:20:36.825Z,95234.00
2024-05-09T04:21:27.189Z,95234.00
2024-05-09T04:22:26.186Z,95236.00
2024-05-09T04:23:26.217Z,95237.00
2024-05-09T04:24:26.190Z,95237.00
2024-05-09T04:25:26.187Z,95240.00
2024-05-09T04:26:26.272Z,95241.00
2024-05-09T04:27:26.190Z,95238.00
2024-05-09T04:28:26.195Z,95239.00
2024-05-09T04:29:26.268Z,95239.00
2024-05-09T04:30:34.769Z,95238.00
2024-05-09T04:31:27.205Z,95239.00
2024-05-09T04:32:26.296Z,95238.00
2024-05-09T04:33:26.307Z,95239.00
2024-05-09T04:34:26.262Z,95239.00
2024-05-09T04:35:26.382Z,95238.00
2024-05-09T04:36:26.209Z,95239.00
2024-05-09T04:37:33.571Z,95240.00
2024-05-09T04:38:33.674Z,95239.00
2024-05-09T04:39:33.531Z,95239.00
2024-05-09T04:40:36.195Z,95241.00
2024-05-09T04:41:33.593Z,95240.00
2024-05-09T04:42:33.541Z,95241.00
2024-05-09T04:43:33.532Z,95241.00
2024-05-09T04:44:33.582Z,95241.00
2024-05-09T04:45:33.544Z,95240.00
2024-05-09T04:46:33.535Z,95241.00
2024-05-09T04:47:33.698Z,95240.00
2024-05-09T04:48:33.606Z,95238.00
2024-05-09T04:49:33.747Z,95237.00
2024-05-09T04:50:37.603Z,95237.00
2024-05-09T04:51:34.561Z,95239.00
2024-05-09T04:52:33.555Z,95237.00
2024-05-09T04:53:33.608Z,95239.00
2024-05-09T04:54:36.453Z,95239.00
2024-05-09T04:55:33.559Z,95242.00
2024-05-09T04:56:33.644Z,95240.00
2024-05-09T04:57:33.574Z,95241.00
2024-05-09T04:58:33.566Z,95242.00
2024-05-09T04:59:33.622Z,95238.00
2024-05-09T05:00:36.807Z,95240.00
2024-05-09T05:01:33.574Z,95240.00
2024-05-09T05:02:33.672Z,95241.00
2024-05-09T05:03:33.645Z,95242.00
2024-05-09T05:04:33.630Z,95244.00
2024-05-09T05:05:33.654Z,95245.00
2024-05-09T05:06:33.594Z,95247.00
2024-05-09T05:07:33.591Z,95248.00
2024-05-09T05:08:33.710Z,95248.00
2024-05-09T05:09:33.592Z,95249.00
2024-05-09T05:10:36.400Z,95249.00
2024-05-09T05:11:33.709Z,95252.00
2024-05-09T05:12:33.754Z,95249.00
2024-05-09T05:13:33.602Z,95249.00
2024-05-09T05:14:33.690Z,95249.00
2024-05-09T05:15:33.626Z,95248.00
2024-05-09T05:16:33.603Z,95247.00
2024-05-09T05:17:33.838Z,95248.00
2024-05-09T05:18:33.680Z,95246.00
2024-05-09T05:19:33.659Z,95249.00
2024-05-09T05:20:34.379Z,95248.00
2024-05-09T05:21:33.637Z,95247.00
2024-05-09T05:22:33.624Z,95247.00
2024-05-09T05:23:33.816Z,95247.00
2024-05-09T05:24:33.626Z,95247.00
2024-05-09T05:25:33.627Z,95246.00
2024-05-09T05:26:33.716Z,95246.00
2024-05-09T05:27:33.630Z,95246.00
2024-05-09T05:28:33.630Z,95246.00
2024-05-09T05:29:33.687Z,95246.00
2024-05-09T05:30:34.986Z,95246.00
2024-05-09T05:31:33.654Z,95247.00
2024-05-09T05:32:33.754Z,95247.00
2024-05-09T05:33:33.731Z,95250.00
2024-05-09T05:34:33.637Z,95250.00
2024-05-09T05:35:33.878Z,95252.00
2024-05-09T05:36:33.640Z,95252.00
2024-05-09T05:37:33.649Z,95256.00
2024-05-09T05:38:33.676Z,95255.00
2024-05-09T05:39:33.647Z,95256.00
2024-05-09T05:40:37.029Z,95258.00
2024-05-09T05:41:33.721Z,95259.00
2024-05-09T05:42:33.657Z,95258.00
2024-05-09T05:43:33.661Z,95260.00
2024-05-09T05:44:33.732Z,95260.00
2024-05-09T05:45:33.680Z,95262.00
2024-05-09T05:46:33.654Z,95262.00
2024-05-09T05:47:33.769Z,95261.00
2024-05-09T05:48:33.756Z,95264.00
2024-05-09T05:49:33.684Z,95261.00
2024-05-09T05:50:36.577Z,95262.00
2024-05-09T05:51:33.666Z,95261.00
2024-05-09T05:52:33.671Z,95261.00
2024-05-09T05:53:33.851Z,95261.00
2024-05-09T05:54:33.682Z,95257.00
2024-05-09T05:55:33.698Z,95257.00
2024-05-09T05:56:33.801Z,95258.00
2024-05-09T05:57:33.678Z,95259.00
2024-05-09T05:58:33.702Z,95255.00
2024-05-09T05:59:33.829Z,95255.00
2024-05-09T06:00:38.025Z,95256.00
2024-05-09T06:01:34.728Z,95259.00
2024-05-09T06:02:33.800Z,95259.00
2024-05-09T06:03:33.859Z,95257.00
2024-05-09T06:04:33.738Z,95255.00
2024-05-09T06:05:33.808Z,95257.00
2024-05-09T06:06:33.694Z,95256.00
2024-05-09T06:07:33.703Z,95254.00
2024-05-09T06:08:33.744Z,95253.00
2024-05-09T06:09:33.735Z,95253.00
2024-05-09T06:10:38.859Z,95250.00
2024-05-09T06:11:34.882Z,95252.00
2024-05-09T06:12:33.803Z,95250.00
2024-05-09T06:13:33.816Z,95250.00
2024-05-09T06:14:33.866Z,95249.00
2024-05-09T06:15:33.850Z,95248.00
2024-05-09T06:16:33.839Z,95246.00
2024-05-09T06:17:33.989Z,95244.00
2024-05-09T06:18:34.048Z,95246.00
2024-05-09T06:19:33.986Z,95247.00
2024-05-09T06:20:36.736Z,95244.00
2024-05-09T06:21:33.932Z,95244.00
2024-05-09T06:22:33.924Z,95244.00
2024-05-09T06:23:34.045Z,95244.00
2024-05-09T06:24:33.925Z,95243.00
2024-05-09T06:25:33.955Z,95242.00
2024-05-09T06:26:33.972Z,95239.00
2024-05-09T06:27:33.956Z,95239.00
2024-05-09T06:28:33.930Z,95238.00
2024-05-09T06:29:34.050Z,95236.00
2024-05-09T06:30:38.525Z,95234.00
2024-05-09T06:31:34.941Z,95234.00
2024-05-09T06:32:34.223Z,95233.00
2024-05-09T06:33:34.387Z,95236.00
2024-05-09T06:34:34.009Z,95236.00
2024-05-09T06:35:34.298Z,95234.00
2024-05-09T06:36:33.941Z,95235.00
2024-05-09T06:37:33.984Z,95233.00
2024-05-09T06:38:34.102Z,95231.00
2024-05-09T06:39:33.955Z,95232.00
2024-05-09T06:40:37.655Z,95232.00
2024-05-09T06:41:35.087Z,95233.00
2024-05-09T06:42:34.049Z,95234.00
2024-05-09T06:43:34.033Z,95233.00
2024-05-09T06:44:34.115Z,95232.00
2024-05-09T06:45:34.027Z,95234.00
2024-05-09T06:46:34.029Z,95235.00
2024-05-09T06:47:34.255Z,95236.00
2024-05-09T06:48:34.298Z,95237.00
2024-05-09T06:49:34.119Z,95237.00
2024-05-09T06:50:37.776Z,95240.00
2024-05-09T06:51:35.089Z,95239.00
2024-05-09T06:52:34.075Z,95240.00
2024-05-09T06:53:34.232Z,95241.00
2024-05-09T06:54:34.078Z,95241.00
2024-05-09T06:55:34.100Z,95241.00
2024-05-09T06:56:34.188Z,95241.00
2024-05-09T06:57:34.109Z,95240.00
2024-05-09T06:58:34.088Z,95239.00
2024-05-09T06:59:34.195Z,95240.00
2024-05-09T07:00:38.676Z,95241.00
2024-05-09T07:01:35.132Z,95241.00
2024-05-09T07:02:34.246Z,95243.00
2024-05-09T07:03:34.219Z,95241.00
2024-05-09T07:04:34.215Z,95241.00
2024-05-09T07:05:34.163Z,95241.00
2024-05-09T07:06:34.110Z,95243.00
2024-05-09T07:07:34.114Z,95242.00
2024-05-09T07:08:34.285Z,95242.00
2024-05-09T07:09:34.140Z,95241.00
2024-05-09T07:10:35.581Z,95243.00
2024-05-09T07:11:34.258Z,95243.00
2024-05-09T07:12:34.233Z,95243.00
2024-05-09T07:13:34.244Z,95241.00
2024-05-09T07:14:36.021Z,95240.00
2024-05-09T07:15:34.257Z,95242.00
2024-05-09T07:16:34.265Z,95238.00
2024-05-09T07:17:34.415Z,95239.00
2024-05-09T07:18:34.410Z,95239.00
2024-05-09T07:19:34.326Z,95240.00
2024-05-09T07:20:35.180Z,95238.00
2024-05-09T07:21:34.269Z,95235.00
2024-05-09T07:22:34.303Z,95237.00
2024-05-09T07:23:34.405Z,95233.00
2024-05-09T07:24:34.282Z,95234.00
2024-05-09T07:25:34.280Z,95235.00
2024-05-09T07:26:34.435Z,95232.00
2024-05-09T07:27:34.318Z,95230.00
2024-05-09T07:28:34.294Z,95229.00
2024-05-09T07:29:37.800Z,95231.00
2024-05-09T07:30:35.155Z,95229.00
2024-05-09T07:31:34.295Z,95231.00
2024-05-09T07:32:34.399Z,95230.00
2024-05-09T07:33:34.347Z,95229.00
2024-05-09T07:34:34.367Z,95230.00
2024-05-09T07:35:34.638Z,95231.00
2024-05-09T07:36:34.298Z,95229.00
2024-05-09T07:37:34.377Z,95229.00
2024-05-09T07:38:34.339Z,95228.00
2024-05-09T07:39:34.311Z,95229.00
2024-05-09T07:40:36.635Z,95228.00
2024-05-09T07:41:34.401Z,95225.00
2024-05-09T07:42:34.323Z,95224.00
2024-05-09T07:43:34.324Z,95224.00
2024-05-09T07:44:34.432Z,95223.00
2024-05-09T07:50:34.332Z,95220.00
2024-05-09T07:52:23.670Z,95218.00
2024-05-09T07:53:33.242Z,95219.00
2024-05-09T07:53:42.677Z,95219.00
2024-05-09T07:54:35.480Z,95219.00
2024-05-09T07:55:34.514Z,95219.00
2024-05-09T07:56:34.795Z,95216.00
2024-05-09T07:57:34.456Z,95218.00
2024-05-09T07:58:34.369Z,95217.00
2024-05-09T07:59:37.839Z,95214.00
2024-05-09T08:00:34.512Z,95213.00
2024-05-09T08:01:34.493Z,95210.00
2024-05-09T08:02:34.462Z,95211.00
2024-05-09T08:03:34.721Z,95209.00
2024-05-09T08:04:34.466Z,95211.00
2024-05-09T08:05:34.639Z,95212.00
2024-05-09T08:06:34.450Z,95209.00
2024-05-09T08:07:34.389Z,95209.00
2024-05-09T08:08:34.388Z,95208.00
2024-05-09T08:09:36.695Z,95209.00
2024-05-09T08:10:34.448Z,95208.00
2024-05-09T08:11:34.424Z,95207.00
2024-05-09T08:12:34.422Z,95208.00
2024-05-09T08:13:34.399Z,95207.00
2024-05-09T08:14:34.399Z,95206.00
2024-05-09T08:15:34.428Z,95207.00
2024-05-09T08:16:34.434Z,95207.00
2024-05-09T08:17:34.445Z,95206.00
2024-05-09T08:18:34.623Z,95204.00
2024-05-09T08:19:34.465Z,95202.00
2024-05-09T08:20:35.473Z,95203.00
2024-05-09T08:21:34.499Z,95204.00
2024-05-09T08:22:34.399Z,95203.00
2024-05-09T08:23:34.419Z,95200.00
2024-05-09T08:24:34.449Z,95198.00
2024-05-09T08:25:34.420Z,95198.00
2024-05-09T08:26:34.415Z,95199.00
2024-05-09T08:27:34.534Z,95200.00
2024-05-09T08:28:34.414Z,95199.00
2024-05-09T08:29:34.414Z,95196.00
2024-05-09T08:30:37.241Z,95197.00
2024-05-09T08:31:34.508Z,95195.00
2024-05-09T08:32:34.488Z,95194.00
2024-05-09T08:33:34.626Z,95194.00
2024-05-09T08:34:34.467Z,95191.00
2024-05-09T08:35:34.677Z,95192.00
2024-05-09T08:36:34.475Z,95194.00
2024-05-09T08:37:37.942Z,95191.00
2024-05-09T08:38:35.456Z,95190.00
2024-05-09T08:39:34.487Z,95189.00
2024-05-09T08:40:36.586Z,95189.00
2024-05-09T08:41:34.444Z,95188.00
2024-05-09T08:42:34.471Z,95191.00
2024-05-09T08:43:34.935Z,95190.00
2024-05-09T08:44:34.444Z,95188.00
2024-05-09T08:45:34.510Z,95187.00
2024-05-09T08:46:34.529Z,95188.00
2024-05-09T08:47:34.567Z,95188.00
2024-05-09T08:48:34.639Z,95187.00
2024-05-09T08:49:35.131Z,95186.00
2024-05-09T08:50:38.881Z,95188.00
2024-05-09T08:51:35.474Z,95189.00
2024-05-09T08:52:34.473Z,95187.00
2024-05-09T08:53:34.473Z,95188.00
2024-05-09T08:54:34.544Z,95188.00
2024-05-09T08:55:35.440Z,95189.00
2024-05-09T08:56:34.471Z,95188.00
2024-05-09T08:57:34.500Z,95187.00
2024-05-09T08:58:34.478Z,95188.00
2024-05-09T08:59:34.481Z,95185.00
2024-05-09T09:00:37.284Z,95185.00
2024-05-09T09:01:35.117Z,95185.00
2024-05-09T09:02:34.674Z,95186.00
2024-05-09T09:03:34.671Z,95185.00
2024-05-09T09:04:34.611Z,95184.00
2024-05-09T09:05:34.748Z,95181.00
2024-05-09T09:06:34.545Z,95180.00
2024-05-09T09:07:34.563Z,95178.00
2024-05-09T09:08:34.504Z,95177.00
2024-05-09T09:09:34.569Z,95178.00
2024-05-09T09:10:34.645Z,95175.00
2024-05-09T09:11:34.537Z,95175.00
2024-05-09T09:12:34.547Z,95173.00
2024-05-09T09:13:34.515Z,95173.00
2024-05-09T09:14:34.514Z,95173.00
2024-05-09T09:15:34.536Z,95173.00
2024-05-09T09:16:34.531Z,95172.00
2024-05-09T09:17:34.612Z,95171.00
2024-05-09T09:18:34.792Z,95173.00
2024-05-09T09:19:34.554Z,95173.00
2024-05-09T09:20:36.841Z,95172.00
2024-05-09T09:21:34.656Z,95172.00
2024-05-09T09:22:34.531Z,95173.00
2024-05-09T09:23:34.527Z,95171.00
2024-05-09T09:24:34.576Z,95172.00
2024-05-09T09:25:34.526Z,95170.00
2024-05-09T09:26:34.546Z,95168.00
2024-05-09T09:27:34.587Z,95167.00
2024-05-09T09:28:34.546Z,95165.00
2024-05-09T09:29:34.532Z,95163.00
2024-05-09T09:30:37.640Z,95163.00
2024-05-09T09:31:34.566Z,95162.00
2024-05-09T09:32:34.613Z,95163.00
2024-05-09T09:33:34.650Z,95162.00
2024-05-09T09:34:34.711Z,95165.00
2024-05-09T09:35:34.534Z,95161.00
2024-05-09T09:36:34.593Z,95157.00
2024-05-09T09:37:34.545Z,95154.00
2024-05-09T09:38:34.562Z,95151.00
2024-05-09T09:39:34.587Z,95152.00
2024-05-09T09:40:37.291Z,95152.00
2024-05-09T09:41:35.556Z,95154.00
2024-05-09T09:42:34.603Z,95147.00
2024-05-09T09:43:34.567Z,95149.00
2024-05-09T09:44:37.336Z,95147.00
2024-05-09T09:45:34.619Z,95144.00
2024-05-09T09:46:34.612Z,95142.00
2024-05-09T09:47:34.643Z,95141.00
2024-05-09T09:48:34.619Z,95141.00
2024-05-09T09:49:34.616Z,95138.00
2024-05-09T09:50:35.266Z,95135.00
2024-05-09T09:51:34.644Z,95136.00
2024-05-09T09:52:34.580Z,95135.00
2024-05-09T09:53:34.588Z,95133.00
2024-05-09T09:54:34.634Z,95131.00
2024-05-09T09:55:34.585Z,95130.00
2024-05-09T09:56:34.586Z,95128.00
2024-05-09T09:57:34.593Z,95127.00
2024-05-09T09:58:34.595Z,95127.00
2024-05-09T09:59:34.592Z,95124.00
2024-05-09T10:00:34.733Z,95124.00
2024-05-09T10:01:34.748Z,95123.00
2024-05-09T10:02:34.647Z,95119.00
2024-05-09T10:03:34.857Z,95120.00
2024-05-09T10:04:34.704Z,95119.00
2024-05-09T10:05:34.812Z,95118.00
2024-05-09T10:06:34.604Z,95120.00
2024-05-09T10:07:34.611Z,95116.00
2024-05-09T10:08:34.670Z,95117.00
2024-05-09T10:09:34.686Z,95114.00
2024-05-09T10:10:34.857Z,95115.00
2024-05-09T10:11:41.872Z,95110.00
2024-05-09T10:12:35.817Z,95111.00
2024-05-09T10:13:34.956Z,95108.00
2024-05-09T10:14:34.727Z,95104.00
2024-05-09T10:15:34.763Z,95104.00
2024-05-09T10:16:34.801Z,95103.00
2024-05-09T10:17:34.817Z,95100.00
2024-05-09T10:18:34.880Z,95099.00
2024-05-09T10:19:34.805Z,95097.00
2024-05-09T10:20:34.789Z,95095.00
2024-05-09T10:21:34.766Z,95094.00
2024-05-09T10:22:34.730Z,95090.00
2024-05-09T10:23:34.799Z,95091.00
2024-05-09T10:24:34.819Z,95091.00
2024-05-09T10:25:34.726Z,95089.00
2024-05-09T10:26:34.727Z,95090.00
2024-05-09T10:27:34.783Z,95090.00
2024-05-09T10:28:34.732Z,95084.00
2024-05-09T10:29:34.731Z,95085.00
2024-05-09T10:30:36.355Z,95087.00
2024-05-09T10:31:34.789Z,95084.00
2024-05-09T10:32:34.781Z,95088.00
2024-05-09T10:33:34.951Z,95085.00
2024-05-09T10:34:34.852Z,95084.00
2024-05-09T10:35:34.791Z,95078.00
2024-05-09T10:36:34.884Z,95077.00
2024-05-09T10:37:34.902Z,95077.00
2024-05-09T10:38:34.900Z,95076.00
2024-05-09T10:39:34.968Z,95073.00
2024-05-09T10:40:34.997Z,95069.00
2024-05-09T10:41:34.968Z,95069.00
2024-05-09T10:42:35.058Z,95068.00
2024-05-09T10:43:35.027Z,95066.00
2024-05-09T10:44:35.054Z,95063.00
2024-05-09T10:45:35.114Z,95063.00
2024-05-09T10:46:35.107Z,95061.00
2024-05-09T10:47:35.178Z,95060.00
2024-05-09T10:48:35.219Z,95061.00
2024-05-09T10:49:35.226Z,95059.00
2024-05-09T10:50:35.246Z,95059.00
2024-05-09T10:51:35.313Z,95060.00
2024-05-09T10:52:35.271Z,95056.00
2024-05-09T10:53:35.300Z,95055.00
2024-05-09T10:54:35.375Z,95053.00
2024-05-09T10:55:35.398Z,95052.00
2024-05-09T10:56:35.371Z,95052.00
2024-05-09T10:57:35.431Z,95050.00
2024-05-09T10:58:35.412Z,95052.00
2024-05-09T10:59:35.443Z,95051.00
2024-05-09T11:00:36.494Z,95052.00
2024-05-09T11:01:35.598Z,95048.00
2024-05-09T11:02:35.595Z,95048.00
2024-05-09T11:03:36.107Z,95049.00
2024-05-09T11:04:35.707Z,95049.00
2024-05-09T11:05:35.743Z,95048.00
2024-05-09T11:06:35.684Z,95046.00
2024-05-09T11:07:35.677Z,95044.00
2024-05-09T11:08:35.719Z,95041.00
2024-05-09T11:09:35.770Z,95043.00
2024-05-09T11:10:35.879Z,95041.00
2024-05-09T11:11:35.835Z,95041.00
2024-05-09T11:12:35.872Z,95041.00
2024-05-09T11:13:35.871Z,95037.00
2024-05-09T11:14:35.885Z,95042.00
2024-05-09T11:15:36.050Z,95041.00
2024-05-09T11:16:35.943Z,95040.00
2024-05-09T11:17:36.181Z,95042.00
2024-05-09T11:18:38.855Z,95041.00
2024-05-09T11:19:36.041Z,95039.00
2024-05-09T11:20:36.274Z,95034.00
2024-05-09T11:21:36.039Z,95036.00
2024-05-09T11:22:36.013Z,95032.00
2024-05-09T11:23:36.039Z,95036.00
2024-05-09T11:24:36.063Z,95032.00
2024-05-09T11:25:36.015Z,95031.00
2024-05-09T11:26:36.018Z,95030.00
2024-05-09T11:27:36.043Z,95028.00
2024-05-09T11:28:36.109Z,95028.00
2024-05-09T11:29:36.026Z,95023.00
2024-05-09T11:30:36.124Z,95023.00
2024-05-09T11:31:36.112Z,95022.00
2024-05-09T11:32:36.101Z,95020.00
2024-05-09T11:33:36.092Z,95019.00
2024-05-09T11:34:36.095Z,95014.00
2024-05-09T11:35:36.032Z,95019.00
2024-05-09T11:36:36.067Z,95019.00
2024-05-09T11:37:37.255Z,95016.00
2024-05-09T11:38:36.086Z,95017.00
2024-05-09T11:39:36.065Z,95014.00
2024-05-09T11:40:36.090Z,95014.00
2024-05-09T11:41:36.035Z,95017.00
2024-05-09T11:42:36.091Z,95016.00
2024-05-09T11:43:36.049Z,95015.00
2024-05-09T11:44:36.052Z,95010.00
2024-05-09T11:45:36.133Z,95013.00
2024-05-09T11:46:36.047Z,95009.00
2024-05-09T11:47:36.136Z,95009.00
2024-05-09T11:48:36.222Z,95010.00
2024-05-09T11:49:36.124Z,95007.00
2024-05-09T11:50:36.454Z,95006.00
2024-05-09T11:51:36.102Z,95004.00